Berkley, Iowa
Current Conditions -  °F | °C
As of 2:55 AM on Wednesday 26 Nov 2014 (Local Time) from KPRO Reporting Station
Light Snow Light Snow  
Wind Chill: 20°   Ceiling: 700
Heat Index: 31°   Visibility: 4mi
Dew Point: 30°   Wind: 14mph
Humidity: 99%   Direction: 130°SE
Pressure: 29.89"   Gusts: NA
Location:  41.8713°N, 94.0973°W
Report Text: KPRO 260855Z AUTO 13012KT 4SM -SN OVC007 M01/M01 A2989 RMK AO2 P0001 60001 T10081009
Loading
Personal Weather Stations






























Interactive Weather Map New forecast layout! Learn more

10-Day Weather Forecast

Advertisements
Track Severe Weather on mobile